Time;durP1;ratioP1;P1;durP2;ratioP2;P2;SDS_P1;SDS_P2;PMS_P1;PMS_P2;Temp;Humidity;BMP_temperature;BMP_pressure;BME280_temperature;BME280_humidity;BME280_pressure;Samples;Min_cycle;Max_cycle;Signal;HPM_P1;HPM_P2
2023/03/22 00:02:03;;;;;;;8.00;6.33;;;9.00;99.90;;;8.31;83.57;100468.75;5056345;28;20186;-74
2023/03/22 00:04:35;;;;;;;8.13;6.37;;;8.90;99.90;;;8.27;84.31;100467.34;5055353;28;20226;-74
2023/03/22 00:07:07;;;;;;;9.10;5.93;;;8.90;99.90;;;8.28;84.57;100468.19;5055968;28;20194;-74
2023/03/22 00:09:38;;;;;;;7.77;6.43;;;8.90;99.90;;;8.27;83.73;100464.69;5056214;28;20198;-74
2023/03/22 00:12:12;;;;;;;9.53;6.37;;;8.90;99.90;;;8.26;83.86;100463.00;5055760;28;20256;-74
2023/03/22 00:14:45;;;;;;;8.37;7.53;;;8.90;99.90;;;8.21;84.05;100461.78;5056065;28;20228;-74
2023/03/22 00:17:17;;;;;;;10.07;7.37;;;8.80;99.90;;;8.22;84.97;100461.63;5055711;28;20236;-74
2023/03/22 00:19:49;;;;;;;9.70;7.20;;;8.90;99.90;;;8.21;85.08;100464.44;5055981;28;20194;-74
2023/03/22 00:22:21;;;;;;;9.23;7.20;;;8.90;99.90;;;8.21;85.03;100467.97;5055642;28;20193;-74
2023/03/22 00:24:52;;;;;;;10.83;7.97;;;8.90;99.90;;;8.20;84.99;100460.94;5055837;28;20226;-74
2023/03/22 00:27:24;;;;;;;9.70;7.43;;;8.90;99.90;;;8.24;85.04;100457.00;5055552;28;20194;-74
2023/03/22 00:29:58;;;;;;;9.37;8.00;;;8.90;99.90;;;8.22;84.53;100455.47;5055539;28;20647;-74
2023/03/22 00:32:30;;;;;;;10.30;7.93;;;8.90;99.90;;;8.22;84.80;100458.94;5055400;28;20682;-74
2023/03/22 00:35:02;;;;;;;12.00;8.27;;;8.90;99.90;;;8.21;84.68;100451.97;5055678;28;20248;-74
2023/03/22 00:37:37;;;;;;;10.27;8.30;;;8.90;99.90;;;8.24;84.65;100451.66;5055724;28;20194;-74
2023/03/22 00:40:12;;;;;;;10.37;8.73;;;9.00;99.90;;;8.29;84.31;100445.91;5055666;28;20201;-74
2023/03/22 00:42:45;;;;;;;10.70;8.53;;;9.00;99.90;;;8.27;84.08;100442.50;5055344;28;20190;-74
2023/03/22 00:45:18;;;;;;;13.43;9.03;;;9.00;99.90;;;8.29;83.88;100436.03;5055485;28;20225;-74
2023/03/22 00:47:49;;;;;;;10.70;9.30;;;9.00;99.90;;;8.29;83.88;100444.06;5055222;28;20615;-74
2023/03/22 00:50:21;;;;;;;13.67;9.60;;;9.00;99.90;;;8.33;83.74;100429.41;5055412;28;20237;-74
2023/03/22 00:52:53;;;;;;;10.77;9.07;;;9.00;99.90;;;8.33;83.87;100434.75;5055331;28;20210;-74
2023/03/22 00:55:25;;;;;;;11.83;9.50;;;9.00;99.90;;;8.36;83.56;100428.25;5055300;28;20233;-74
2023/03/22 00:57:57;;;;;;;11.90;9.10;;;9.10;99.90;;;8.35;83.48;100421.28;5055336;28;20195;-74
2023/03/22 01:00:31;;;;;;;12.37;9.30;;;9.10;99.90;;;8.32;83.49;100421.59;5055414;28;20190;-74
2023/03/22 01:03:03;;;;;;;11.37;9.27;;;9.00;99.90;;;8.30;83.46;100419.06;5055225;28;20191;-74
2023/03/22 01:05:36;;;;;;;10.20;9.07;;;9.00;99.90;;;8.29;83.82;100412.03;5054817;28;20288;-74
2023/03/22 01:08:11;;;;;;;12.70;10.07;;;9.00;99.90;;;8.28;83.16;100414.84;5055125;28;20197;-74
2023/03/22 01:10:44;;;;;;;10.77;9.53;;;9.00;99.90;;;8.24;84.05;100418.81;5055047;28;20186;-74
2023/03/22 01:13:17;;;;;;;13.47;9.30;;;8.90;99.90;;;8.22;83.54;100410.94;5054669;28;20553;-74
2023/03/22 01:15:52;;;;;;;13.23;10.27;;;8.90;99.90;;;8.19;83.94;100411.25;5054658;28;20241;-74
2023/03/22 01:18:24;;;;;;;11.47;9.57;;;8.90;99.90;;;8.18;83.88;100415.75;5054916;28;20189;-74
2023/03/22 01:20:56;;;;;;;11.60;9.20;;;8.90;99.90;;;8.15;83.66;100408.06;5054884;28;20187;-74
2023/03/22 01:23:28;;;;;;;12.83;9.87;;;8.90;99.90;;;8.16;83.87;100407.06;5054822;28;20195;-74
2023/03/22 01:26:00;;;;;;;14.57;10.10;;;8.90;99.90;;;8.15;84.00;100401.88;5054705;28;20229;-74
2023/03/22 01:28:33;;;;;;;11.33;9.97;;;8.80;99.90;;;8.15;84.08;100393.88;5054702;28;20190;-74
2023/03/22 01:31:07;;;;;;;12.27;10.17;;;8.90;99.90;;;8.13;84.01;100396.72;5054710;28;20194;-74
2023/03/22 01:33:38;;;;;;;12.07;10.20;;;8.80;99.90;;;8.10;83.76;100390.84;5054555;28;20213;-74
2023/03/22 01:36:13;;;;;;;13.07;10.97;;;8.80;99.90;;;8.10;84.16;100390.84;5055163;28;20233;-74
2023/03/22 01:38:44;;;;;;;13.27;11.07;;;8.80;99.90;;;8.10;84.28;100389.03;5054510;28;20204;-74
2023/03/22 01:41:17;;;;;;;15.03;11.63;;;8.80;99.90;;;8.09;84.03;100386.50;5054499;28;20203;-74
2023/03/22 01:44:12;;;;;;;12.87;10.60;;;8.80;99.90;;;8.11;84.00;100392.53;5054430;28;20190;-74
2023/03/22 01:46:45;;;;;;;14.70;11.73;;;8.80;99.90;;;8.09;84.19;100390.00;5054398;28;20190;-74
2023/03/22 01:49:22;;;;;;;13.90;10.90;;;8.80;99.90;;;8.09;84.21;100384.69;5054334;28;20190;-74
2023/03/22 01:51:59;;;;;;;13.43;10.70;;;8.80;99.90;;;8.10;84.38;100381.03;5053906;28;20596;-74
2023/03/22 01:54:39;;;;;;;13.70;11.53;;;8.80;99.90;;;8.10;84.11;100390.84;5054156;28;20226;-74
2023/03/22 01:57:11;;;;;;;16.93;11.67;;;8.80;99.90;;;8.09;84.16;100383.84;5054201;28;20194;-74
2023/03/22 01:59:46;;;;;;;12.30;11.07;;;8.80;99.90;;;8.09;84.30;100379.34;5054145;28;20198;-74
2023/03/22 02:02:18;;;;;;;14.93;12.80;;;8.80;99.90;;;8.11;84.73;100377.38;5054140;28;20190;-74
2023/03/22 02:04:56;;;;;;;19.00;11.53;;;8.80;99.90;;;8.10;84.56;100381.03;5053943;28;20236;-74
2023/03/22 02:07:30;;;;;;;13.37;11.97;;;8.80;99.90;;;8.12;84.48;100376.38;5054031;28;20190;-74
2023/03/22 02:10:03;;;;;;;16.07;11.57;;;8.80;99.90;;;8.12;84.50;100368.38;5053983;28;20195;-74
2023/03/22 02:12:48;;;;;;;17.13;13.10;;;8.80;99.90;;;8.13;84.37;100369.22;5053845;28;20217;-74
2023/03/22 02:15:27;;;;;;;14.43;11.97;;;8.80;99.90;;;8.13;85.00;100358.53;5053999;28;20283;-74
2023/03/22 02:18:21;;;;;;;16.40;12.90;;;8.80;99.90;;;8.13;85.05;100364.72;5053471;28;20567;-74
2023/03/22 02:21:34;;;;;;;14.97;13.03;;;8.90;99.90;;;8.15;85.14;100359.22;5053794;28;20186;-74
2023/03/22 02:24:45;;;;;;;16.00;12.73;;;8.90;99.90;;;8.16;84.82;100363.56;5053737;28;20210;-74
2023/03/22 02:27:44;;;;;;;13.97;12.47;;;8.80;99.90;;;8.18;84.71;100361.59;5053354;28;20190;-74
2023/03/22 02:31:02;;;;;;;16.37;13.43;;;8.90;99.90;;;8.18;84.50;100361.59;5053358;28;20558;-74
2023/03/22 02:34:15;;;;;;;19.60;14.03;;;8.90;99.90;;;8.18;85.07;100360.75;5045664;28;20232;-74
2023/03/22 02:37:41;;;;;;;17.83;13.97;;;8.90;99.90;;;8.21;84.66;100355.97;5023199;28;20206;-74
2023/03/22 02:40:24;;;;;;;15.07;13.30;;;8.90;99.90;;;8.21;84.87;100350.63;5024256;28;20206;-74
2023/03/22 02:43:09;;;;;;;19.27;14.20;;;8.90;99.90;;;8.20;85.12;100348.09;5053531;28;20240;-74
2023/03/22 02:45:52;;;;;;;19.60;13.17;;;8.90;99.90;;;8.19;85.04;100347.25;5053422;28;20229;-74
2023/03/22 02:48:32;;;;;;;17.53;13.87;;;8.90;99.90;;;8.18;84.89;100345.59;5053447;28;20205;-75
2023/03/22 02:51:09;;;;;;;17.90;13.70;;;8.90;99.90;;;8.16;85.17;100342.25;5053084;28;20531;-74
2023/03/22 02:53:52;;;;;;;16.50;13.70;;;8.90;99.90;;;8.14;85.60;100345.06;5053311;28;20240;-74
2023/03/22 02:56:31;;;;;;;17.20;14.40;;;8.90;99.90;;;8.13;85.31;100342.53;5052946;28;20605;-74
2023/03/22 02:59:06;;;;;;;18.67;14.70;;;8.80;99.90;;;8.13;85.13;100351.38;5053048;28;20201;-74
2023/03/22 03:01:43;;;;;;;19.73;14.50;;;8.80;99.90;;;8.13;85.40;100347.88;5053380;28;20186;-74
2023/03/22 03:04:24;;;;;;;18.53;14.50;;;8.80;99.90;;;8.12;85.30;100346.19;5052933;28;20186;-75
2023/03/22 03:07:02;;;;;;;19.47;14.73;;;8.80;99.90;;;8.11;85.48;100347.22;5053314;28;20197;-74
2023/03/22 03:09:36;;;;;;;18.87;15.40;;;8.80;99.90;;;8.09;85.70;100339.34;5053258;28;20273;-74
2023/03/22 03:12:18;;;;;;;17.50;14.90;;;8.80;99.90;;;8.10;85.86;100337.53;5053257;28;20244;-74
2023/03/22 03:14:50;;;;;;;18.23;15.23;;;8.80;99.90;;;8.10;85.47;100342.84;5053053;28;20238;-75
2023/03/22 03:17:38;;;;;;;17.97;14.67;;;8.80;99.90;;;8.11;85.96;100345.38;5053167;28;20217;-74
2023/03/22 03:20:23;;;;;;;17.87;15.20;;;8.80;99.90;;;8.12;85.93;100336.38;5053191;28;20190;-74
2023/03/22 03:23:12;;;;;;;18.90;15.07;;;8.80;99.90;;;8.12;85.83;100330.19;5053163;28;20252;-74
2023/03/22 03:25:52;;;;;;;18.90;15.50;;;8.80;99.90;;;8.13;85.79;100335.38;5052762;28;20234;-74
2023/03/22 03:28:38;;;;;;;17.53;15.13;;;8.80;99.90;;;8.15;86.13;100335.22;5052797;28;20201;-74
2023/03/22 03:31:24;;;;;;;20.73;16.00;;;8.90;99.90;;;8.14;86.15;100336.22;5053074;28;20197;-75
2023/03/22 03:34:05;;;;;;;17.53;15.40;;;8.90;99.90;;;8.15;86.15;100335.22;5052670;28;20678;-74
2023/03/22 03:36:44;;;;;;;20.33;15.93;;;8.80;99.90;;;8.14;86.22;100333.56;5052730;28;20194;-74
2023/03/22 03:39:18;;;;;;;18.70;15.83;;;8.90;99.90;;;8.14;85.89;100338.91;5053268;28;20236;-74
2023/03/22 03:41:55;;;;;;;19.50;15.43;;;8.90;99.90;;;8.16;85.69;100332.41;5056770;28;20194;-74
2023/03/22 03:44:30;;;;;;;19.63;16.50;;;8.90;99.90;;;8.23;86.14;100326.44;5056637;28;20191;-75
2023/03/22 03:47:04;;;;;;;21.60;16.13;;;8.90;99.90;;;8.21;85.85;100326.63;5056685;28;20198;-74
2023/03/22 03:49:36;;;;;;;18.83;16.17;;;8.90;99.90;;;8.20;85.84;100321.44;5057025;28;20193;-74
2023/03/22 03:52:08;;;;;;;21.50;17.57;;;8.90;99.90;;;8.18;85.99;100310.09;5056604;28;20190;-74
2023/03/22 03:54:41;;;;;;;21.10;16.73;;;8.90;99.90;;;8.21;86.18;100315.97;5056370;28;20247;-74
2023/03/22 03:57:15;;;;;;;17.60;14.67;;;9.00;99.90;;;8.21;85.40;100313.28;5056486;28;20557;-74
2023/03/22 03:59:49;;;;;;;20.07;16.23;;;9.00;99.90;;;8.21;85.58;100313.28;5056424;28;20191;-74
2023/03/22 04:02:20;;;;;;;22.50;16.70;;;8.90;99.90;;;8.25;86.06;100316.47;5056361;28;20194;-74
2023/03/22 04:04:52;;;;;;;20.90;16.20;;;9.00;99.90;;;8.24;85.98;100315.66;5056242;28;20272;-74
2023/03/22 04:07:24;;;;;;;20.90;16.47;;;9.00;99.90;;;8.24;85.53;100310.31;5056290;28;20244;-74
2023/03/22 04:09:56;;;;;;;20.93;16.77;;;9.00;99.90;;;8.27;85.20;100315.31;5055907;28;20194;-74
2023/03/22 04:12:28;;;;;;;20.67;16.40;;;9.00;99.90;;;8.28;85.24;100313.50;5055878;28;20639;-74
2023/03/22 04:15:01;;;;;;;18.87;15.93;;;9.00;99.90;;;8.27;85.61;100306.47;5055871;28;20240;-74
2023/03/22 04:17:33;;;;;;;20.90;17.03;;;9.00;99.90;;;8.26;85.50;100302.97;5056077;28;20211;-74
2023/03/22 04:20:05;;;;;;;21.17;16.70;;;9.00;99.90;;;8.30;85.36;100304.38;5056096;28;20198;-74
2023/03/22 04:22:38;;;;;;;19.47;15.53;;;9.00;99.90;;;8.25;85.79;100298.66;5055711;28;20581;-74
2023/03/22 04:25:16;;;;;;;19.93;15.27;;;9.00;99.90;;;8.25;85.25;100309.31;5055612;28;20584;-75
2023/03/22 04:27:50;;;;;;;18.93;16.17;;;9.00;99.90;;;8.24;85.88;100294.31;5055935;28;20218;-74
2023/03/22 04:30:23;;;;;;;20.27;15.77;;;9.00;99.90;;;8.22;85.43;100287.47;5055534;28;20241;-74
2023/03/22 04:32:55;;;;;;;20.17;16.67;;;8.90;99.90;;;8.20;85.35;100284.94;5055764;28;20197;-74
2023/03/22 04:35:27;;;;;;;20.37;15.93;;;8.90;99.90;;;8.19;85.99;100293.91;5055634;28;20240;-74
2023/03/22 04:38:00;;;;;;;17.10;15.30;;;8.90;99.90;;;8.18;85.92;100288.75;5055742;28;20194;-74
2023/03/22 04:40:35;;;;;;;19.63;16.23;;;8.90;99.90;;;8.16;85.98;100289.75;5055624;28;20217;-75
2023/03/22 04:43:08;;;;;;;18.07;15.23;;;8.90;99.90;;;8.15;85.99;100292.56;5055426;28;20558;-74
2023/03/22 04:45:42;;;;;;;17.77;15.63;;;8.90;99.90;;;8.14;86.27;100288.25;5055509;28;20222;-75
2023/03/22 04:48:14;;;;;;;18.77;15.63;;;8.80;99.90;;;8.14;85.94;100291.75;5055528;28;20194;-74
2023/03/22 04:50:46;;;;;;;20.00;15.93;;;8.80;99.90;;;8.13;86.35;100289.22;5054764;28;20191;-74
2023/03/22 04:53:18;;;;;;;20.50;15.67;;;8.80;99.90;;;8.13;86.18;100290.06;5055409;28;20260;-74
2023/03/22 04:55:49;;;;;;;20.63;16.20;;;8.80;99.90;;;8.13;85.92;100289.22;5055299;28;20275;-73
2023/03/22 04:58:21;;;;;;;19.80;16.50;;;8.90;99.90;;;8.13;86.03;100289.22;5055053;28;20195;-76
2023/03/22 05:00:57;;;;;;;18.00;15.60;;;8.80;99.90;;;8.14;86.15;100290.91;5054141;28;20194;-74
2023/03/22 05:03:29;;;;;;;22.33;17.43;;;8.90;99.90;;;8.17;85.93;100290.59;5055046;28;20194;-75
2023/03/22 05:06:05;;;;;;;23.67;17.70;;;8.90;99.90;;;8.17;86.57;100290.59;5056007;28;20226;-74
2023/03/22 05:08:37;;;;;;;21.53;17.77;;;8.90;99.90;;;8.20;85.94;100287.59;5055123;28;20194;-74
2023/03/22 05:11:14;;;;;;;20.13;17.37;;;8.90;99.90;;;8.29;85.30;100280.53;5055134;28;20194;-74
2023/03/22 05:13:45;;;;;;;22.17;17.17;;;9.00;99.90;;;8.33;85.11;100289.88;5054969;28;20197;-74
2023/03/22 05:16:19;;;;;;;22.77;17.50;;;9.10;99.90;;;8.34;85.28;100287.06;5054733;28;20234;-74
2023/03/22 05:18:53;;;;;;;23.57;18.30;;;9.10;99.90;;;8.33;85.47;100289.88;5054990;28;20199;-74
2023/03/22 05:21:27;;;;;;;21.67;18.17;;;9.10;99.90;;;8.35;85.30;100287.91;5054870;28;20190;-74
2023/03/22 05:24:00;;;;;;;26.40;19.00;;;9.10;99.90;;;8.34;85.77;100286.22;5054920;28;20190;-74
2023/03/22 05:26:32;;;;;;;25.57;17.93;;;9.10;99.90;;;8.33;85.49;100282.72;5054161;28;20597;-74
2023/03/22 05:29:06;;;;;;;23.90;20.27;;;9.00;99.90;;;8.38;85.28;100276.94;5052808;28;20580;-64
2023/03/22 05:31:39;;;;;;;22.53;18.77;;;9.10;99.90;;;8.40;85.29;100281.09;5054545;28;20186;-64
2023/03/22 05:34:11;;;;;;;21.57;17.93;;;9.10;99.90;;;8.43;85.06;100283.44;5054020;28;20538;-77
2023/03/22 05:36:43;;;;;;;20.57;17.27;;;9.20;99.90;;;8.51;84.75;100288.84;5054591;28;20198;-77
2023/03/22 05:39:15;;;;;;;22.40;17.77;;;9.20;99.90;;;8.51;84.67;100283.50;5054247;28;20213;-77
2023/03/22 05:41:47;;;;;;;21.37;17.20;;;9.30;99.90;;;8.54;84.58;100288.53;5054500;28;20190;-77
2023/03/22 05:44:19;;;;;;;21.37;16.77;;;9.30;99.90;;;8.58;83.80;100284.56;5054388;28;20190;-77
2023/03/22 05:46:52;;;;;;;22.83;17.63;;;9.30;99.90;;;8.54;84.23;100277.00;5054981;28;20198;-77
2023/03/22 05:49:25;;;;;;;23.53;17.57;;;9.30;99.90;;;8.55;84.58;100279.53;5054354;28;20195;-77
2023/03/22 05:51:57;;;;;;;21.40;17.03;;;9.30;99.90;;;8.51;84.77;100288.00;5054339;28;20622;-77
2023/03/22 05:54:30;;;;;;;20.43;16.60;;;9.30;99.90;;;8.60;83.84;100292.38;5054136;28;20234;-77
2023/03/22 05:57:01;;;;;;;22.93;16.27;;;9.30;99.90;;;8.62;84.34;100279.75;5054235;28;20186;-77
2023/03/22 05:59:34;;;;;;;18.33;16.10;;;9.40;99.90;;;8.56;84.41;100281.19;5054247;28;20194;-77
2023/03/22 06:02:07;;;;;;;23.57;17.10;;;9.30;99.90;;;8.59;84.60;100280.91;5053146;28;20547;-77
2023/03/22 06:04:40;;;;;;;21.40;16.70;;;9.30;99.90;;;8.61;84.28;100273.56;5054231;28;20313;-77
2023/03/22 06:07:12;;;;;;;20.10;16.07;;;9.30;99.90;;;8.62;84.51;100263.72;5054031;28;20194;-77
2023/03/22 06:09:44;;;;;;;22.53;16.50;;;9.30;99.90;;;8.60;84.84;100260.34;5054085;28;20599;-77
2023/03/22 06:12:17;;;;;;;21.57;16.73;;;9.30;99.90;;;8.56;84.62;100243.84;5053672;28;20559;-77
2023/03/22 06:14:49;;;;;;;23.13;17.07;;;9.30;99.90;;;8.56;85.13;100243.03;5053494;28;20702;-77
2023/03/22 06:17:22;;;;;;;20.63;16.57;;;9.30;99.90;;;8.53;85.04;100244.16;5053872;28;20197;-77
2023/03/22 06:19:54;;;;;;;22.63;16.80;;;9.20;99.90;;;8.55;85.43;100244.00;5053569;28;20202;-77
2023/03/22 06:22:29;;;;;;;19.73;16.73;;;9.30;99.90;;;8.55;85.56;100236.84;5053849;28;20194;-77
2023/03/22 06:25:01;;;;;;;20.93;15.20;;;9.30;99.90;;;8.54;85.46;100245.00;5053380;28;20726;-77
2023/03/22 06:27:33;;;;;;;23.57;16.93;;;9.30;99.90;;;8.54;85.08;100245.84;5053784;28;20286;-77
2023/03/22 06:30:05;;;;;;;18.73;16.50;;;9.30;99.90;;;8.53;85.76;100244.16;5053795;28;20194;-77
2023/03/22 06:32:39;;;;;;;17.97;15.80;;;9.30;99.90;;;8.59;85.37;100248.03;5053691;28;20190;-77
2023/03/22 06:35:12;;;;;;;19.17;15.50;;;9.30;99.90;;;8.62;85.39;100248.56;5053960;28;20237;-77
2023/03/22 06:37:44;;;;;;;20.73;16.73;;;9.40;99.90;;;8.63;85.52;100252.88;5053628;28;20224;-77
2023/03/22 06:40:16;;;;;;;21.03;17.10;;;9.30;99.90;;;8.61;85.63;100252.22;5053258;28;20642;-77
2023/03/22 06:42:48;;;;;;;23.80;18.27;;;9.30;99.90;;;8.62;85.68;100250.38;5053580;28;20240;-77
2023/03/22 06:45:20;;;;;;;24.37;18.43;;;9.30;99.90;;;8.63;85.87;100250.22;5053471;28;20226;-77
2023/03/22 06:47:53;;;;;;;23.63;17.80;;;9.40;99.90;;;8.65;86.36;100237.56;5053544;28;20190;-77
2023/03/22 06:50:25;;;;;;;23.33;17.40;;;9.30;99.90;;;8.70;85.83;100249.59;5053190;28;20647;-77
2023/03/22 06:52:57;;;;;;;24.13;17.77;;;9.40;99.90;;;8.72;86.13;100244.91;5053389;28;20190;-77
2023/03/22 06:55:32;;;;;;;22.83;18.07;;;9.40;99.90;;;8.74;86.34;100256.25;5053256;28;20233;-77
2023/03/22 06:58:04;;;;;;;22.90;17.53;;;9.50;99.90;;;8.79;86.25;100248.63;5053393;28;20190;-77
2023/03/22 07:00:37;;;;;;;22.60;17.77;;;9.50;99.90;;;8.82;85.99;100256.31;5053344;28;20190;-77
2023/03/22 07:03:11;;;;;;;21.70;16.63;;;9.60;99.90;;;8.83;86.06;100256.16;5053372;28;20240;-77
2023/03/22 07:05:43;;;;;;;23.83;17.30;;;9.60;99.90;;;8.85;86.37;100254.16;5053246;28;20226;-77
2023/03/22 07:08:15;;;;;;;22.50;17.30;;;9.60;99.90;;;8.87;86.45;100252.13;5053302;28;20352;-77
2023/03/22 07:10:51;;;;;;;24.57;17.13;;;9.60;99.90;;;8.90;86.63;100245.66;5053288;28;20186;-77
2023/03/22 07:13:22;;;;;;;20.57;17.53;;;9.60;99.90;;;8.93;86.23;100245.34;5054127;28;20194;-77
2023/03/22 07:16:01;;;;;;;18.87;16.87;;;9.70;99.90;;;8.96;86.55;100253.03;5056879;28;20241;-77
2023/03/22 07:18:34;;;;;;;21.43;16.67;;;9.70;99.90;;;9.04;84.60;100242.38;5057274;28;20198;-77
2023/03/22 07:21:06;;;;;;;20.90;16.57;;;9.80;99.90;;;9.15;83.67;100250.91;5056876;28;20593;-77
2023/03/22 07:23:38;;;;;;;19.43;15.87;;;9.90;99.90;;;9.18;83.65;100245.22;5057171;28;20195;-77
2023/03/22 07:26:12;;;;;;;19.63;16.20;;;9.90;99.90;;;9.14;83.83;100237.72;5057038;28;20249;-77
2023/03/22 07:28:45;;;;;;;20.73;16.23;;;9.90;99.90;;;9.18;83.24;100239.91;5057059;28;20205;-77
2023/03/22 07:31:17;;;;;;;20.17;15.47;;;9.90;99.90;;;9.19;83.27;100240.72;5056637;28;20587;-77
2023/03/22 07:33:51;;;;;;;20.17;15.57;;;9.90;99.90;;;9.26;82.78;100246.25;5057760;28;20202;-77
2023/03/22 07:36:24;;;;;;;17.10;15.10;;;10.00;99.90;;;9.38;82.04;100251.13;5057261;28;20230;-77
2023/03/22 07:38:56;;;;;;;20.60;16.10;;;10.10;99.90;;;9.35;82.53;100246.09;5056874;28;20214;-77
2023/03/22 07:41:29;;;;;;;21.00;16.23;;;10.10;99.90;;;9.40;82.73;100249.13;5056849;28;20186;-77
2023/03/22 07:44:01;;;;;;;21.93;16.70;;;10.10;99.90;;;9.49;82.85;100241.94;5056794;28;20191;-77
2023/03/22 07:46:50;;;;;;;20.00;15.57;;;10.20;99.90;;;9.58;82.83;100241.81;5056739;28;20188;-77
2023/03/22 07:49:23;;;;;;;20.63;15.17;;;10.20;99.90;;;9.60;82.46;100250.47;5056723;28;20193;-77
2023/03/22 07:51:55;;;;;;;19.67;15.83;;;10.30;99.90;;;9.68;81.69;100242.47;5056603;28;20198;-77
2023/03/22 07:54:27;;;;;;;23.57;16.23;;;10.40;99.90;;;9.69;82.30;100244.13;5056558;28;20193;-77
2023/03/22 07:57:05;;;;;;;17.80;14.07;;;10.40;99.90;;;9.76;81.59;100232.78;5056461;28;20574;-77
2023/03/22 07:59:38;;;;;;;17.70;14.67;;;10.50;99.90;;;9.74;82.00;100224.94;5056488;28;20194;-77
2023/03/22 08:02:11;;;;;;;19.63;15.37;;;10.50;99.90;;;9.78;82.71;100225.44;5056485;28;20198;-77
2023/03/22 08:04:45;;;;;;;19.20;14.77;;;10.40;99.90;;;9.94;81.10;100236.09;5056366;28;20254;-77
2023/03/22 08:07:17;;;;;;;17.83;13.57;;;10.60;99.90;;;10.08;80.56;100227.41;5056385;28;20197;-77
2023/03/22 08:09:49;;;;;;;15.80;14.10;;;10.70;99.90;;;10.21;80.40;100222.38;5056308;28;20200;-77
2023/03/22 08:12:21;;;;;;;18.57;14.20;;;10.80;99.90;;;10.28;81.29;100220.72;5056002;28;20194;-77
2023/03/22 08:14:53;;;;;;;19.70;14.07;;;10.90;99.90;;;10.44;80.22;100230.56;5056275;28;20233;-66
2023/03/22 08:17:25;;;;;;;17.00;12.90;;;11.10;99.90;;;10.58;78.59;100216.47;5055662;28;20678;-65
2023/03/22 08:19:59;;;;;;;19.30;12.53;;;11.20;99.90;;;10.64;78.29;100215.75;5055793;28;20690;-73
2023/03/22 08:22:33;;;;;;;16.63;13.07;;;11.30;99.90;;;10.73;78.47;100221.91;5055992;28;20193;-74
2023/03/22 08:25:08;;;;;;;18.03;12.87;;;11.30;99.90;;;10.79;78.04;100215.88;5055117;28;20245;-74
2023/03/22 08:27:39;;;;;;;17.93;12.70;;;11.40;99.90;;;10.90;77.81;100215.47;5055081;28;20190;-75
2023/03/22 08:30:12;;;;;;;17.30;11.90;;;11.50;99.90;;;10.98;77.25;100215.44;5055289;28;20281;-75
2023/03/22 08:32:43;;;;;;;19.20;12.80;;;11.60;99.90;;;10.95;77.67;100205.06;5055904;28;20197;-75
2023/03/22 08:35:17;;;;;;;15.93;11.97;;;11.60;99.90;;;10.88;77.28;100204.09;5055357;28;20726;-75
2023/03/22 08:37:52;;;;;;;13.70;10.83;;;11.50;99.90;;;10.81;78.08;100201.28;5055661;28;20197;-75
2023/03/22 08:40:26;;;;;;;15.07;11.50;;;11.50;99.90;;;10.79;78.06;100200.63;5055754;28;20193;-75
2023/03/22 08:42:58;;;;;;;15.67;11.13;;;11.50;99.90;;;10.93;76.52;100196.34;5055317;28;20662;-75
2023/03/22 08:45:30;;;;;;;16.27;11.97;;;11.60;99.90;;;10.86;77.69;100192.72;5055293;28;20230;-75
2023/03/22 08:48:03;;;;;;;14.53;11.33;;;11.50;99.90;;;10.95;76.80;100179.13;5055244;28;20643;-75
2023/03/22 08:50:38;;;;;;;15.17;10.43;;;11.60;99.90;;;10.97;75.74;100178.94;5055522;28;20288;-75
2023/03/22 08:53:12;;;;;;;16.03;11.13;;;11.60;99.90;;;11.00;75.98;100175.91;5055228;28;20665;-75
2023/03/22 08:55:46;;;;;;;14.63;11.90;;;11.60;99.90;;;11.02;75.54;100171.22;5055506;28;20241;-75
2023/03/22 08:58:19;;;;;;;14.10;10.87;;;11.70;99.90;;;10.99;76.75;100168.91;5055407;28;20186;-75
2023/03/22 09:00:51;;;;;;;14.73;10.60;;;11.60;99.90;;;11.05;75.43;100162.81;5055039;28;20191;-75
2023/03/22 09:03:25;;;;;;;12.47;10.27;;;11.70;99.90;;;11.10;74.98;100171.16;5055002;28;20639;-75
2023/03/22 09:05:58;;;;;;;14.63;10.47;;;11.70;99.70;;;11.11;74.16;100168.31;5055221;28;20225;-75
2023/03/22 09:08:30;;;;;;;14.87;10.47;;;11.70;99.30;;;11.10;74.33;100173.81;5055249;28;20190;-75
2023/03/22 09:11:02;;;;;;;15.13;11.57;;;11.70;99.40;;;11.15;74.92;100166.09;5055228;28;20248;-75
2023/03/22 09:13:34;;;;;;;15.63;10.57;;;11.80;99.50;;;11.16;74.72;100173.13;5054808;28;20598;-76
2023/03/22 09:16:07;;;;;;;14.00;10.77;;;11.70;99.70;;;11.14;76.04;100161.75;5054618;28;20307;-75
2023/03/22 09:18:41;;;;;;;14.07;10.40;;;11.80;99.90;;;11.27;74.73;100167.34;5054910;28;20198;-75
2023/03/22 09:21:14;;;;;;;16.57;10.37;;;11.90;99.70;;;11.34;75.15;100165.63;5054923;28;20214;-75
2023/03/22 09:23:47;;;;;;;15.13;10.23;;;12.00;99.80;;;11.40;74.58;100167.59;5054892;28;20190;-74
2023/03/22 09:26:19;;;;;;;15.23;9.73;;;12.10;99.50;;;11.43;75.83;100161.03;5054965;28;20312;-74
2023/03/22 09:28:51;;;;;;;16.83;10.40;;;12.00;99.90;;;11.51;74.86;100152.91;5055709;28;20209;-74
2023/03/22 09:31:22;;;;;;;14.83;9.63;;;12.20;99.30;;;11.68;73.97;100144.56;5055439;28;20282;-75
2023/03/22 09:33:56;;;;;;;13.50;8.50;;;12.30;99.00;;;11.75;72.09;100149.25;5056580;28;20193;-73
2023/03/22 09:36:31;;;;;;;12.77;8.77;;;12.40;98.60;;;11.74;72.44;100143.03;5058070;28;20230;-74
2023/03/22 09:39:06;;;;;;;10.70;8.43;;;12.40;98.40;;;11.81;72.74;100137.78;5058710;28;20201;-74
2023/03/22 09:41:46;;;;;;;12.93;8.10;;;12.40;98.20;;;11.81;71.79;100135.94;5058610;28;20190;-74
2023/03/22 09:44:27;;;;;;;10.80;7.90;;;12.40;98.10;;;11.86;72.09;100138.03;5058984;28;20190;-74
2023/03/22 09:47:04;;;;;;;11.60;8.23;;;12.40;98.40;;;11.98;71.76;100128.56;5059816;28;20186;-74
2023/03/22 09:49:45;;;;;;;12.07;8.07;;;12.60;97.90;;;12.10;70.58;100130.56;5071160;28;20281;-74
2023/03/22 09:52:26;;;;;;;10.00;7.37;;;12.70;97.40;;;12.23;68.38;100127.22;5075009;28;20197;-74
2023/03/22 09:54:58;;;;;;;8.50;6.07;;;12.80;96.70;;;12.17;68.73;100128.81;5066910;28;20264;-74
2023/03/22 09:57:36;;;;;;;8.87;6.30;;;12.80;96.40;;;12.18;68.03;100124.28;5054358;28;20213;-77
2023/03/22 10:00:22;;;;;;;7.60;5.67;;;12.80;96.40;;;12.23;68.43;100116.50;5054185;28;20197;-77
2023/03/22 10:03:07;;;;;;;10.70;5.20;;;12.90;96.70;;;12.36;67.37;100122.06;5054222;28;20186;-78
2023/03/22 10:05:49;;;;;;;9.23;5.60;;;13.00;96.00;;;12.36;68.38;100124.75;5054203;28;20229;-77
2023/03/22 10:08:44;;;;;;;9.03;5.53;;;13.00;96.20;;;12.40;68.43;100117.97;5053794;28;20631;-77
2023/03/22 10:11:23;;;;;;;12.43;5.77;;;13.00;96.20;;;12.53;68.87;100110.09;5054064;28;20252;-77
2023/03/22 10:14:06;;;;;;;10.30;5.57;;;13.10;96.20;;;12.67;68.35;100116.47;5054024;28;20243;-77
2023/03/22 10:16:39;;;;;;;7.70;4.47;;;13.20;96.00;;;12.57;67.34;100114.06;5053436;28;20748;-77
2023/03/22 10:19:26;;;;;;;8.33;5.23;;;13.20;95.40;;;12.57;66.97;100118.59;5053920;28;20186;-77
2023/03/22 10:22:02;;;;;;;9.27;4.97;;;13.20;95.40;;;12.53;68.13;100107.41;5053836;28;20191;-77
2023/03/22 10:24:39;;;;;;;8.53;5.13;;;13.20;95.90;;;12.54;67.28;100106.38;5053745;28;20221;-77
2023/03/22 10:27:20;;;;;;;10.07;5.60;;;13.20;95.70;;;12.71;67.38;100105.13;5053477;28;20190;-78
2023/03/22 10:29:59;;;;;;;11.03;5.90;;;13.20;95.40;;;12.70;65.88;100100.78;5053786;28;20190;-64
2023/03/22 10:32:41;;;;;;;8.63;5.47;;;13.30;95.30;;;12.67;65.62;100103.84;5053678;28;20197;-67
2023/03/22 10:35:29;;;;;;;10.90;5.40;;;13.30;94.90;;;12.74;65.52;100093.16;5053183;28;20600;-73
2023/03/22 10:38:09;;;;;;;9.97;4.90;;;13.30;94.80;;;12.82;66.18;100094.91;5053667;28;20256;-72
2023/03/22 10:40:43;;;;;;;6.73;5.10;;;13.40;95.40;;;12.89;65.30;100098.50;5053581;28;20190;-73
2023/03/22 10:43:25;;;;;;;20.57;7.13;;;13.50;95.00;;;12.87;65.88;100104.09;5053552;28;20198;-72
2023/03/22 10:46:00;;;;;;;14.57;5.90;;;13.50;94.50;;;12.85;64.98;100100.75;5053380;28;20581;-72